sensor_id;sensor_type;location;lat;lon;timestamp;P1;durP1;ratioP1;P2;durP2;ratioP2
31716;SDS011;18301;51.076;17.046;2023-11-19T00:00:56;29.42;;;14.93;;
31716;SDS011;18301;51.076;17.046;2023-11-19T00:05:58;33.28;;;15.90;;
31716;SDS011;18301;51.076;17.046;2023-11-19T00:10:59;31.35;;;15.23;;
31716;SDS011;18301;51.076;17.046;2023-11-19T00:16:02;24.50;;;13.32;;
31716;SDS011;18301;51.076;17.046;2023-11-19T00:21:05;25.33;;;12.15;;
31716;SDS011;18301;51.076;17.046;2023-11-19T00:26:09;25.95;;;14.52;;
31716;SDS011;18301;51.076;17.046;2023-11-19T00:31:11;31.60;;;15.82;;
31716;SDS011;18301;51.076;17.046;2023-11-19T00:36:13;37.38;;;17.92;;
31716;SDS011;18301;51.076;17.046;2023-11-19T00:41:15;32.90;;;16.73;;
31716;SDS011;18301;51.076;17.046;2023-11-19T00:46:17;37.00;;;18.38;;
31716;SDS011;18301;51.076;17.046;2023-11-19T00:51:19;33.95;;;17.40;;
31716;SDS011;18301;51.076;17.046;2023-11-19T00:56:21;34.47;;;18.00;;
31716;SDS011;18301;51.076;17.046;2023-11-19T01:01:23;34.53;;;18.42;;
31716;SDS011;18301;51.076;17.046;2023-11-19T01:06:30;38.10;;;21.13;;
31716;SDS011;18301;51.076;17.046;2023-11-19T01:11:32;35.08;;;17.05;;
31716;SDS011;18301;51.076;17.046;2023-11-19T01:16:34;30.67;;;16.65;;
31716;SDS011;18301;51.076;17.046;2023-11-19T01:21:35;32.42;;;16.92;;
31716;SDS011;18301;51.076;17.046;2023-11-19T01:26:37;34.40;;;18.73;;
31716;SDS011;18301;51.076;17.046;2023-11-19T01:31:39;32.63;;;17.00;;
31716;SDS011;18301;51.076;17.046;2023-11-19T01:36:44;36.92;;;18.30;;
31716;SDS011;18301;51.076;17.046;2023-11-19T01:41:47;32.35;;;16.38;;
31716;SDS011;18301;51.076;17.046;2023-11-19T01:46:49;34.05;;;17.13;;
31716;SDS011;18301;51.076;17.046;2023-11-19T01:51:51;33.95;;;17.25;;
31716;SDS011;18301;51.076;17.046;2023-11-19T01:56:53;28.73;;;15.98;;
31716;SDS011;18301;51.076;17.046;2023-11-19T02:01:58;31.88;;;15.77;;
31716;SDS011;18301;51.076;17.046;2023-11-19T02:07:02;30.33;;;16.05;;
31716;SDS011;18301;51.076;17.046;2023-11-19T02:12:03;29.83;;;15.35;;
31716;SDS011;18301;51.076;17.046;2023-11-19T02:17:05;24.45;;;11.95;;
31716;SDS011;18301;51.076;17.046;2023-11-19T02:22:07;32.90;;;15.77;;
31716;SDS011;18301;51.076;17.046;2023-11-19T02:27:10;33.42;;;16.33;;
31716;SDS011;18301;51.076;17.046;2023-11-19T02:32:37;32.00;;;15.60;;
31716;SDS011;18301;51.076;17.046;2023-11-19T02:37:42;29.92;;;15.35;;
31716;SDS011;18301;51.076;17.046;2023-11-19T02:42:43;31.95;;;15.02;;
31716;SDS011;18301;51.076;17.046;2023-11-19T02:47:45;33.25;;;16.42;;
31716;SDS011;18301;51.076;17.046;2023-11-19T02:52:47;31.13;;;15.60;;
31716;SDS011;18301;51.076;17.046;2023-11-19T02:57:50;32.60;;;16.55;;
31716;SDS011;18301;51.076;17.046;2023-11-19T03:02:54;33.58;;;16.70;;
31716;SDS011;18301;51.076;17.046;2023-11-19T03:08:06;34.17;;;16.73;;
31716;SDS011;18301;51.076;17.046;2023-11-19T03:13:11;34.20;;;17.95;;
31716;SDS011;18301;51.076;17.046;2023-11-19T03:18:15;33.47;;;17.08;;
31716;SDS011;18301;51.076;17.046;2023-11-19T03:23:16;33.67;;;16.08;;
31716;SDS011;18301;51.076;17.046;2023-11-19T03:28:18;34.13;;;17.65;;
31716;SDS011;18301;51.076;17.046;2023-11-19T03:33:19;33.20;;;16.58;;
31716;SDS011;18301;51.076;17.046;2023-11-19T03:38:21;36.92;;;17.60;;
31716;SDS011;18301;51.076;17.046;2023-11-19T03:43:22;36.03;;;16.88;;
31716;SDS011;18301;51.076;17.046;2023-11-19T03:48:24;31.17;;;15.93;;
31716;SDS011;18301;51.076;17.046;2023-11-19T03:53:25;34.35;;;16.98;;
31716;SDS011;18301;51.076;17.046;2023-11-19T03:58:27;34.10;;;16.25;;
31716;SDS011;18301;51.076;17.046;2023-11-19T04:03:28;38.30;;;17.35;;
31716;SDS011;18301;51.076;17.046;2023-11-19T04:08:30;30.50;;;15.95;;
31716;SDS011;18301;51.076;17.046;2023-11-19T04:13:31;31.83;;;15.43;;
31716;SDS011;18301;51.076;17.046;2023-11-19T04:18:33;33.58;;;15.50;;
31716;SDS011;18301;51.076;17.046;2023-11-19T04:23:35;32.10;;;15.73;;
31716;SDS011;18301;51.076;17.046;2023-11-19T04:28:36;33.05;;;16.52;;
31716;SDS011;18301;51.076;17.046;2023-11-19T04:33:38;32.05;;;15.65;;
31716;SDS011;18301;51.076;17.046;2023-11-19T04:38:40;30.63;;;15.27;;
31716;SDS011;18301;51.076;17.046;2023-11-19T04:43:42;27.23;;;13.77;;
31716;SDS011;18301;51.076;17.046;2023-11-19T04:48:44;27.70;;;13.85;;
31716;SDS011;18301;51.076;17.046;2023-11-19T04:53:45;30.33;;;14.57;;
31716;SDS011;18301;51.076;17.046;2023-11-19T04:58:47;29.60;;;14.30;;
31716;SDS011;18301;51.076;17.046;2023-11-19T05:03:48;25.83;;;13.55;;
31716;SDS011;18301;51.076;17.046;2023-11-19T05:08:50;23.83;;;12.07;;
31716;SDS011;18301;51.076;17.046;2023-11-19T05:13:51;27.45;;;13.70;;
31716;SDS011;18301;51.076;17.046;2023-11-19T05:18:53;27.35;;;13.30;;
31716;SDS011;18301;51.076;17.046;2023-11-19T05:23:54;28.17;;;13.75;;
31716;SDS011;18301;51.076;17.046;2023-11-19T05:28:56;24.88;;;12.57;;
31716;SDS011;18301;51.076;17.046;2023-11-19T05:33:58;25.65;;;12.38;;
31716;SDS011;18301;51.076;17.046;2023-11-19T05:39:00;25.10;;;11.98;;
31716;SDS011;18301;51.076;17.046;2023-11-19T05:44:01;23.52;;;12.05;;
31716;SDS011;18301;51.076;17.046;2023-11-19T05:49:03;19.90;;;11.32;;
31716;SDS011;18301;51.076;17.046;2023-11-19T05:54:08;20.75;;;11.15;;
31716;SDS011;18301;51.076;17.046;2023-11-19T05:59:11;21.27;;;11.80;;
31716;SDS011;18301;51.076;17.046;2023-11-19T06:04:16;18.73;;;10.70;;
31716;SDS011;18301;51.076;17.046;2023-11-19T06:09:18;22.27;;;11.23;;
31716;SDS011;18301;51.076;17.046;2023-11-19T06:14:19;20.73;;;11.05;;
31716;SDS011;18301;51.076;17.046;2023-11-19T06:19:21;19.80;;;10.50;;
31716;SDS011;18301;51.076;17.046;2023-11-19T06:24:23;19.80;;;10.70;;
31716;SDS011;18301;51.076;17.046;2023-11-19T06:29:24;21.33;;;10.88;;
31716;SDS011;18301;51.076;17.046;2023-11-19T06:34:25;20.20;;;11.02;;
31716;SDS011;18301;51.076;17.046;2023-11-19T06:39:27;23.77;;;12.23;;
31716;SDS011;18301;51.076;17.046;2023-11-19T06:44:29;21.42;;;11.40;;
31716;SDS011;18301;51.076;17.046;2023-11-19T06:49:30;20.75;;;10.52;;
31716;SDS011;18301;51.076;17.046;2023-11-19T06:54:32;18.23;;;10.02;;
31716;SDS011;18301;51.076;17.046;2023-11-19T06:59:34;19.70;;;10.80;;
31716;SDS011;18301;51.076;17.046;2023-11-19T07:04:36;18.13;;;9.20;;
31716;SDS011;18301;51.076;17.046;2023-11-19T07:09:37;17.52;;;9.68;;
31716;SDS011;18301;51.076;17.046;2023-11-19T07:14:39;18.42;;;9.32;;
31716;SDS011;18301;51.076;17.046;2023-11-19T07:19:41;13.82;;;7.20;;
31716;SDS011;18301;51.076;17.046;2023-11-19T07:24:42;16.08;;;9.43;;
31716;SDS011;18301;51.076;17.046;2023-11-19T07:29:44;14.02;;;8.55;;
31716;SDS011;18301;51.076;17.046;2023-11-19T07:34:46;15.75;;;9.35;;
31716;SDS011;18301;51.076;17.046;2023-11-19T07:39:47;17.75;;;9.20;;
31716;SDS011;18301;51.076;17.046;2023-11-19T07:44:49;16.98;;;9.02;;
31716;SDS011;18301;51.076;17.046;2023-11-19T07:49:50;20.13;;;9.98;;
31716;SDS011;18301;51.076;17.046;2023-11-19T07:54:52;15.68;;;8.63;;
31716;SDS011;18301;51.076;17.046;2023-11-19T07:59:53;17.17;;;9.23;;
31716;SDS011;18301;51.076;17.046;2023-11-19T08:04:55;18.02;;;10.07;;
31716;SDS011;18301;51.076;17.046;2023-11-19T08:09:57;17.75;;;9.70;;
31716;SDS011;18301;51.076;17.046;2023-11-19T08:14:58;19.85;;;10.50;;
31716;SDS011;18301;51.076;17.046;2023-11-19T08:20:00;18.55;;;10.02;;
31716;SDS011;18301;51.076;17.046;2023-11-19T08:25:01;18.77;;;10.02;;
31716;SDS011;18301;51.076;17.046;2023-11-19T08:30:04;15.77;;;9.27;;
31716;SDS011;18301;51.076;17.046;2023-11-19T08:35:07;18.55;;;9.80;;
31716;SDS011;18301;51.076;17.046;2023-11-19T08:40:09;19.80;;;10.07;;
31716;SDS011;18301;51.076;17.046;2023-11-19T08:45:11;17.80;;;9.88;;
31716;SDS011;18301;51.076;17.046;2023-11-19T08:50:12;18.95;;;10.25;;
31716;SDS011;18301;51.076;17.046;2023-11-19T08:55:14;19.40;;;10.10;;
31716;SDS011;18301;51.076;17.046;2023-11-19T09:00:15;17.13;;;9.23;;
31716;SDS011;18301;51.076;17.046;2023-11-19T09:05:17;18.10;;;9.85;;
31716;SDS011;18301;51.076;17.046;2023-11-19T09:10:18;16.42;;;9.77;;
31716;SDS011;18301;51.076;17.046;2023-11-19T09:15:20;18.05;;;9.65;;
31716;SDS011;18301;51.076;17.046;2023-11-19T09:20:21;18.05;;;9.93;;
31716;SDS011;18301;51.076;17.046;2023-11-19T09:25:23;19.58;;;9.25;;
31716;SDS011;18301;51.076;17.046;2023-11-19T09:30:25;16.55;;;9.30;;
31716;SDS011;18301;51.076;17.046;2023-11-19T09:35:26;15.57;;;8.65;;
31716;SDS011;18301;51.076;17.046;2023-11-19T09:40:28;14.38;;;8.35;;
31716;SDS011;18301;51.076;17.046;2023-11-19T09:45:30;13.88;;;7.90;;
31716;SDS011;18301;51.076;17.046;2023-11-19T09:50:37;11.63;;;6.20;;
31716;SDS011;18301;51.076;17.046;2023-11-19T09:55:40;14.85;;;7.32;;
31716;SDS011;18301;51.076;17.046;2023-11-19T10:00:42;14.95;;;8.60;;
31716;SDS011;18301;51.076;17.046;2023-11-19T10:05:48;12.10;;;7.18;;
31716;SDS011;18301;51.076;17.046;2023-11-19T10:10:50;16.08;;;8.32;;
31716;SDS011;18301;51.076;17.046;2023-11-19T10:15:53;12.80;;;7.15;;
31716;SDS011;18301;51.076;17.046;2023-11-19T10:20:54;15.35;;;8.63;;
31716;SDS011;18301;51.076;17.046;2023-11-19T10:26:02;12.35;;;7.30;;
31716;SDS011;18301;51.076;17.046;2023-11-19T10:31:06;13.35;;;7.47;;
31716;SDS011;18301;51.076;17.046;2023-11-19T10:36:08;13.68;;;8.00;;
31716;SDS011;18301;51.076;17.046;2023-11-19T10:41:10;19.25;;;8.48;;
31716;SDS011;18301;51.076;17.046;2023-11-19T10:46:12;14.63;;;8.13;;
31716;SDS011;18301;51.076;17.046;2023-11-19T10:51:19;15.75;;;8.70;;
31716;SDS011;18301;51.076;17.046;2023-11-19T10:56:25;12.27;;;7.22;;
31716;SDS011;18301;51.076;17.046;2023-11-19T11:01:34;11.80;;;6.50;;
31716;SDS011;18301;51.076;17.046;2023-11-19T11:06:44;10.80;;;5.70;;
31716;SDS011;18301;51.076;17.046;2023-11-19T11:11:48;6.45;;;3.55;;
31716;SDS011;18301;51.076;17.046;2023-11-19T11:16:51;3.85;;;2.50;;
31716;SDS011;18301;51.076;17.046;2023-11-19T11:21:55;4.78;;;2.90;;
31716;SDS011;18301;51.076;17.046;2023-11-19T11:32:25;5.60;;;2.50;;
31716;SDS011;18301;51.076;17.046;2023-11-19T11:37:47;3.58;;;2.70;;
31716;SDS011;18301;51.076;17.046;2023-11-19T11:42:54;5.32;;;3.08;;
31716;SDS011;18301;51.076;17.046;2023-11-19T11:57:59;5.63;;;3.70;;
31716;SDS011;18301;51.076;17.046;2023-11-19T12:03:02;6.97;;;3.80;;
31716;SDS011;18301;51.076;17.046;2023-11-19T12:08:05;6.65;;;3.78;;
31716;SDS011;18301;51.076;17.046;2023-11-19T12:13:08;6.68;;;4.05;;
31716;SDS011;18301;51.076;17.046;2023-11-19T12:18:10;5.25;;;3.42;;
31716;SDS011;18301;51.076;17.046;2023-11-19T12:23:12;4.68;;;3.55;;
31716;SDS011;18301;51.076;17.046;2023-11-19T12:28:14;6.78;;;4.30;;
31716;SDS011;18301;51.076;17.046;2023-11-19T12:33:18;7.07;;;3.92;;
31716;SDS011;18301;51.076;17.046;2023-11-19T12:38:21;6.60;;;4.30;;
31716;SDS011;18301;51.076;17.046;2023-11-19T12:43:24;7.63;;;4.68;;
31716;SDS011;18301;51.076;17.046;2023-11-19T12:48:25;8.65;;;5.03;;
31716;SDS011;18301;51.076;17.046;2023-11-19T12:53:27;9.05;;;4.97;;
31716;SDS011;18301;51.076;17.046;2023-11-19T12:58:33;14.43;;;7.07;;
31716;SDS011;18301;51.076;17.046;2023-11-19T13:03:36;14.05;;;7.97;;
31716;SDS011;18301;51.076;17.046;2023-11-19T13:08:40;13.48;;;7.53;;
31716;SDS011;18301;51.076;17.046;2023-11-19T13:13:55;13.88;;;7.65;;
31716;SDS011;18301;51.076;17.046;2023-11-19T13:18:57;14.88;;;7.72;;
31716;SDS011;18301;51.076;17.046;2023-11-19T13:24:01;14.85;;;7.65;;
31716;SDS011;18301;51.076;17.046;2023-11-19T13:29:03;16.08;;;8.00;;
31716;SDS011;18301;51.076;17.046;2023-11-19T13:34:04;13.98;;;6.70;;
31716;SDS011;18301;51.076;17.046;2023-11-19T13:39:08;12.68;;;7.07;;
31716;SDS011;18301;51.076;17.046;2023-11-19T13:44:10;11.20;;;6.30;;
31716;SDS011;18301;51.076;17.046;2023-11-19T13:49:11;14.98;;;7.13;;
31716;SDS011;18301;51.076;17.046;2023-11-19T13:54:13;14.57;;;6.88;;
31716;SDS011;18301;51.076;17.046;2023-11-19T13:59:15;13.38;;;6.30;;
31716;SDS011;18301;51.076;17.046;2023-11-19T14:04:17;12.68;;;7.50;;
31716;SDS011;18301;51.076;17.046;2023-11-19T14:09:19;17.38;;;8.90;;
31716;SDS011;18301;51.076;17.046;2023-11-19T14:14:20;19.45;;;9.32;;
31716;SDS011;18301;51.076;17.046;2023-11-19T14:19:22;16.40;;;7.22;;
31716;SDS011;18301;51.076;17.046;2023-11-19T14:24:23;15.02;;;7.15;;
31716;SDS011;18301;51.076;17.046;2023-11-19T14:29:25;11.38;;;5.75;;
31716;SDS011;18301;51.076;17.046;2023-11-19T14:34:32;9.85;;;4.93;;
31716;SDS011;18301;51.076;17.046;2023-11-19T14:39:34;9.27;;;4.70;;
31716;SDS011;18301;51.076;17.046;2023-11-19T14:44:35;10.25;;;4.68;;
31716;SDS011;18301;51.076;17.046;2023-11-19T14:49:37;9.48;;;4.40;;
31716;SDS011;18301;51.076;17.046;2023-11-19T14:54:39;9.93;;;4.10;;
31716;SDS011;18301;51.076;17.046;2023-11-19T14:59:40;10.10;;;4.28;;
31716;SDS011;18301;51.076;17.046;2023-11-19T15:04:42;10.57;;;4.70;;
31716;SDS011;18301;51.076;17.046;2023-11-19T15:09:45;9.77;;;4.78;;
31716;SDS011;18301;51.076;17.046;2023-11-19T15:14:47;7.32;;;4.30;;
31716;SDS011;18301;51.076;17.046;2023-11-19T15:19:48;8.68;;;4.18;;
31716;SDS011;18301;51.076;17.046;2023-11-19T15:24:50;10.38;;;4.13;;
31716;SDS011;18301;51.076;17.046;2023-11-19T15:29:52;10.88;;;4.50;;
31716;SDS011;18301;51.076;17.046;2023-11-19T15:34:53;9.07;;;4.72;;
31716;SDS011;18301;51.076;17.046;2023-11-19T15:39:55;8.93;;;4.32;;
31716;SDS011;18301;51.076;17.046;2023-11-19T15:44:56;13.38;;;5.07;;
31716;SDS011;18301;51.076;17.046;2023-11-19T15:49:59;20.02;;;7.55;;
31716;SDS011;18301;51.076;17.046;2023-11-19T15:55:00;20.35;;;7.28;;
31716;SDS011;18301;51.076;17.046;2023-11-19T16:00:02;29.08;;;9.30;;
31716;SDS011;18301;51.076;17.046;2023-11-19T16:05:05;23.30;;;7.47;;
31716;SDS011;18301;51.076;17.046;2023-11-19T16:10:13;14.90;;;6.60;;
31716;SDS011;18301;51.076;17.046;2023-11-19T16:15:15;13.43;;;5.80;;
31716;SDS011;18301;51.076;17.046;2023-11-19T16:20:37;12.90;;;6.03;;
31716;SDS011;18301;51.076;17.046;2023-11-19T16:25:38;16.73;;;6.32;;
31716;SDS011;18301;51.076;17.046;2023-11-19T16:30:40;11.82;;;5.80;;
31716;SDS011;18301;51.076;17.046;2023-11-19T16:35:42;14.38;;;6.35;;
31716;SDS011;18301;51.076;17.046;2023-11-19T16:40:43;12.05;;;5.90;;
31716;SDS011;18301;51.076;17.046;2023-11-19T16:45:45;19.60;;;8.27;;
31716;SDS011;18301;51.076;17.046;2023-11-19T16:50:47;19.15;;;7.85;;
31716;SDS011;18301;51.076;17.046;2023-11-19T16:55:53;24.08;;;8.60;;
31716;SDS011;18301;51.076;17.046;2023-11-19T17:00:55;19.48;;;7.47;;
31716;SDS011;18301;51.076;17.046;2023-11-19T17:05:58;16.75;;;7.07;;
31716;SDS011;18301;51.076;17.046;2023-11-19T17:11:01;14.25;;;6.93;;
31716;SDS011;18301;51.076;17.046;2023-11-19T17:16:04;14.18;;;6.60;;
31716;SDS011;18301;51.076;17.046;2023-11-19T17:21:08;13.65;;;6.20;;
31716;SDS011;18301;51.076;17.046;2023-11-19T17:26:10;13.45;;;6.15;;
31716;SDS011;18301;51.076;17.046;2023-11-19T17:31:12;11.48;;;6.00;;
31716;SDS011;18301;51.076;17.046;2023-11-19T17:36:15;16.40;;;6.68;;
31716;SDS011;18301;51.076;17.046;2023-11-19T17:41:17;15.75;;;7.40;;
31716;SDS011;18301;51.076;17.046;2023-11-19T17:46:18;14.82;;;7.47;;
31716;SDS011;18301;51.076;17.046;2023-11-19T17:51:20;13.35;;;6.97;;
31716;SDS011;18301;51.076;17.046;2023-11-19T17:56:21;12.55;;;6.18;;
31716;SDS011;18301;51.076;17.046;2023-11-19T18:01:23;13.85;;;6.18;;
31716;SDS011;18301;51.076;17.046;2023-11-19T18:06:25;12.43;;;5.82;;
31716;SDS011;18301;51.076;17.046;2023-11-19T18:11:26;14.18;;;6.35;;
31716;SDS011;18301;51.076;17.046;2023-11-19T18:16:28;14.05;;;6.88;;
31716;SDS011;18301;51.076;17.046;2023-11-19T18:21:29;15.43;;;6.38;;
31716;SDS011;18301;51.076;17.046;2023-11-19T18:26:31;13.52;;;6.20;;
31716;SDS011;18301;51.076;17.046;2023-11-19T18:31:36;12.13;;;5.93;;
31716;SDS011;18301;51.076;17.046;2023-11-19T18:36:38;12.20;;;6.07;;
31716;SDS011;18301;51.076;17.046;2023-11-19T18:41:40;9.60;;;4.95;;
31716;SDS011;18301;51.076;17.046;2023-11-19T18:46:42;13.75;;;5.43;;
31716;SDS011;18301;51.076;17.046;2023-11-19T18:51:44;13.27;;;5.53;;
31716;SDS011;18301;51.076;17.046;2023-11-19T18:56:45;10.65;;;5.15;;
31716;SDS011;18301;51.076;17.046;2023-11-19T19:01:47;11.80;;;5.10;;
31716;SDS011;18301;51.076;17.046;2023-11-19T19:06:48;12.63;;;5.85;;
31716;SDS011;18301;51.076;17.046;2023-11-19T19:11:50;15.95;;;5.70;;
31716;SDS011;18301;51.076;17.046;2023-11-19T19:16:52;12.93;;;5.20;;
31716;SDS011;18301;51.076;17.046;2023-11-19T19:21:55;13.30;;;5.32;;
31716;SDS011;18301;51.076;17.046;2023-11-19T19:26:56;15.45;;;5.60;;
31716;SDS011;18301;51.076;17.046;2023-11-19T19:31:58;13.70;;;5.18;;
31716;SDS011;18301;51.076;17.046;2023-11-19T19:37:01;13.07;;;4.97;;
31716;SDS011;18301;51.076;17.046;2023-11-19T19:42:03;11.13;;;5.05;;
31716;SDS011;18301;51.076;17.046;2023-11-19T19:47:05;12.02;;;5.07;;
31716;SDS011;18301;51.076;17.046;2023-11-19T19:52:07;11.60;;;5.75;;
31716;SDS011;18301;51.076;17.046;2023-11-19T19:57:09;12.48;;;4.95;;
31716;SDS011;18301;51.076;17.046;2023-11-19T20:02:11;14.25;;;4.75;;
31716;SDS011;18301;51.076;17.046;2023-11-19T20:07:12;16.05;;;5.32;;
31716;SDS011;18301;51.076;17.046;2023-11-19T20:12:14;14.45;;;5.35;;
31716;SDS011;18301;51.076;17.046;2023-11-19T20:17:16;14.50;;;5.63;;
31716;SDS011;18301;51.076;17.046;2023-11-19T20:22:17;14.43;;;5.30;;
31716;SDS011;18301;51.076;17.046;2023-11-19T20:27:19;13.93;;;5.47;;
31716;SDS011;18301;51.076;17.046;2023-11-19T20:32:21;12.43;;;4.40;;
31716;SDS011;18301;51.076;17.046;2023-11-19T20:37:23;13.18;;;4.88;;
31716;SDS011;18301;51.076;17.046;2023-11-19T20:42:24;12.88;;;4.57;;
31716;SDS011;18301;51.076;17.046;2023-11-19T20:47:26;12.07;;;4.45;;
31716;SDS011;18301;51.076;17.046;2023-11-19T20:52:28;9.35;;;4.13;;
31716;SDS011;18301;51.076;17.046;2023-11-19T20:57:30;9.23;;;3.72;;
31716;SDS011;18301;51.076;17.046;2023-11-19T21:02:32;11.55;;;3.97;;
31716;SDS011;18301;51.076;17.046;2023-11-19T21:07:34;11.00;;;3.30;;
31716;SDS011;18301;51.076;17.046;2023-11-19T21:12:35;9.95;;;3.28;;
31716;SDS011;18301;51.076;17.046;2023-11-19T21:17:37;11.38;;;3.42;;
31716;SDS011;18301;51.076;17.046;2023-11-19T21:22:39;10.57;;;3.97;;
31716;SDS011;18301;51.076;17.046;2023-11-19T21:27:41;9.75;;;3.55;;
31716;SDS011;18301;51.076;17.046;2023-11-19T21:32:42;11.25;;;3.17;;
31716;SDS011;18301;51.076;17.046;2023-11-19T21:37:44;8.35;;;3.05;;
31716;SDS011;18301;51.076;17.046;2023-11-19T21:42:45;6.65;;;2.30;;
31716;SDS011;18301;51.076;17.046;2023-11-19T21:47:47;9.63;;;2.08;;
31716;SDS011;18301;51.076;17.046;2023-11-19T21:52:49;5.53;;;2.03;;
31716;SDS011;18301;51.076;17.046;2023-11-19T21:57:51;5.85;;;1.92;;
31716;SDS011;18301;51.076;17.046;2023-11-19T22:02:54;8.98;;;2.38;;
31716;SDS011;18301;51.076;17.046;2023-11-19T22:07:55;4.72;;;2.00;;
31716;SDS011;18301;51.076;17.046;2023-11-19T22:13:17;6.03;;;2.40;;
31716;SDS011;18301;51.076;17.046;2023-11-19T22:18:19;9.73;;;2.17;;
31716;SDS011;18301;51.076;17.046;2023-11-19T22:23:21;8.95;;;2.15;;
31716;SDS011;18301;51.076;17.046;2023-11-19T22:28:22;5.45;;;2.58;;
31716;SDS011;18301;51.076;17.046;2023-11-19T22:33:24;7.93;;;2.55;;
31716;SDS011;18301;51.076;17.046;2023-11-19T22:38:25;9.25;;;2.47;;
31716;SDS011;18301;51.076;17.046;2023-11-19T22:43:27;10.45;;;2.38;;
31716;SDS011;18301;51.076;17.046;2023-11-19T22:48:28;7.88;;;2.63;;
31716;SDS011;18301;51.076;17.046;2023-11-19T22:53:30;7.47;;;2.15;;
31716;SDS011;18301;51.076;17.046;2023-11-19T22:58:32;7.53;;;2.35;;
31716;SDS011;18301;51.076;17.046;2023-11-19T23:03:35;11.25;;;2.40;;
31716;SDS011;18301;51.076;17.046;2023-11-19T23:08:37;9.68;;;2.90;;
31716;SDS011;18301;51.076;17.046;2023-11-19T23:13:39;12.93;;;3.60;;
31716;SDS011;18301;51.076;17.046;2023-11-19T23:18:41;13.02;;;4.30;;
31716;SDS011;18301;51.076;17.046;2023-11-19T23:23:43;11.43;;;4.47;;
31716;SDS011;18301;51.076;17.046;2023-11-19T23:28:45;11.55;;;4.43;;
31716;SDS011;18301;51.076;17.046;2023-11-19T23:33:49;9.25;;;4.00;;
31716;SDS011;18301;51.076;17.046;2023-11-19T23:38:51;11.23;;;3.85;;
31716;SDS011;18301;51.076;17.046;2023-11-19T23:43:53;11.60;;;3.28;;
31716;SDS011;18301;51.076;17.046;2023-11-19T23:48:55;11.30;;;3.10;;
31716;SDS011;18301;51.076;17.046;2023-11-19T23:54:00;10.23;;;3.00;;
31716;SDS011;18301;51.076;17.046;2023-11-19T23:59:02;8.55;;;3.03;;
